Time;durP1;ratioP1;P1;durP2;ratioP2;P2;SDS_P1;SDS_P2;PMS_P1;PMS_P2;Temp;Humidity;BMP_temperature;BMP_pressure;BME280_temperature;BME280_humidity;BME280_pressure;Samples;Min_cycle;Max_cycle;Signal;HPM_P1;HPM_P2
2022/04/24 00:01:24;;;;;;;6.40;5.80;;;16.20;90.80;;;;;;4996747;28;20046;-73
2022/04/24 00:03:50;;;;;;;5.68;5.18;;;16.00;90.40;;;;;;5002142;28;20099;-73
2022/04/24 00:06:16;;;;;;;5.70;5.20;;;16.00;91.10;;;;;;5007021;28;20395;-73
2022/04/24 00:08:41;;;;;;;5.65;5.10;;;16.10;90.90;;;;;;4992808;28;20037;-70
2022/04/24 00:11:07;;;;;;;5.70;5.20;;;16.10;90.90;;;;;;5008671;28;20433;-73
2022/04/24 00:13:38;;;;;;;6.07;5.50;;;16.00;91.10;;;;;;5003606;28;20038;-73
2022/04/24 00:16:05;;;;;;;5.97;5.38;;;15.90;90.90;;;;;;5001910;28;20022;-73
2022/04/24 00:18:31;;;;;;;6.70;5.55;;;15.90;91.60;;;;;;5010218;28;20474;-73
2022/04/24 00:20:56;;;;;;;6.07;5.57;;;15.80;91.20;;;;;;4997817;28;20026;-73
2022/04/24 00:23:22;;;;;;;6.78;6.18;;;15.70;91.20;;;;;;5004727;28;20105;-73
2022/04/24 00:25:47;;;;;;;7.03;5.60;;;15.60;91.40;;;;;;4981381;28;20026;-73
2022/04/24 00:28:13;;;;;;;5.40;5.00;;;15.70;91.50;;;;;;4998239;28;20023;-73
2022/04/24 00:30:39;;;;;;;5.85;5.25;;;15.70;91.60;;;;;;4992172;28;20038;-74
2022/04/24 00:33:05;;;;;;;5.85;5.30;;;15.60;91.30;;;;;;5017305;28;20041;-73
2022/04/24 00:35:31;;;;;;;5.93;5.43;;;15.60;91.70;;;;;;5005027;28;20030;-71
2022/04/24 00:37:57;;;;;;;5.43;4.93;;;15.60;91.20;;;;;;5009371;28;20447;-74
2022/04/24 00:40:23;;;;;;;5.40;4.90;;;15.60;91.20;;;;;;5002585;28;20030;-73
2022/04/24 00:42:49;;;;;;;6.28;4.95;;;15.60;91.60;;;;;;4999655;28;20140;-73
2022/04/24 00:45:15;;;;;;;5.78;5.13;;;15.60;91.70;;;;;;5003061;28;20014;-72
2022/04/24 00:47:44;;;;;;;5.70;5.20;;;15.60;91.60;;;;;;5004749;28;20025;-72
2022/04/24 00:50:10;;;;;;;6.10;5.47;;;15.50;92.20;;;;;;5006845;28;20030;-74
2022/04/24 00:52:36;;;;;;;6.50;5.90;;;15.60;91.80;;;;;;5001751;28;20538;-75
2022/04/24 00:55:02;;;;;;;6.93;5.50;;;15.50;91.70;;;;;;4996426;28;20041;-75
2022/04/24 00:57:28;;;;;;;5.88;5.38;;;15.60;91.80;;;;;;5009826;28;20036;-75
2022/04/24 00:59:54;;;;;;;6.50;5.38;;;15.50;91.80;;;;;;5008919;28;20030;-75
2022/04/24 01:02:19;;;;;;;7.35;5.05;;;15.50;92.00;;;;;;4996030;28;20037;-73
2022/04/24 01:04:45;;;;;;;7.50;4.90;;;15.40;92.00;;;;;;5006583;28;20068;-73
2022/04/24 01:07:11;;;;;;;5.65;5.13;;;15.40;91.90;;;;;;5002206;28;20101;-73
2022/04/24 01:09:37;;;;;;;6.97;5.30;;;15.50;92.40;;;;;;4998142;28;20045;-74
2022/04/24 01:12:04;;;;;;;5.60;5.10;;;15.40;92.20;;;;;;4998558;28;20092;-74
2022/04/24 01:14:31;;;;;;;7.47;5.10;;;15.30;91.60;;;;;;4991892;28;20029;-71
2022/04/24 01:16:58;;;;;;;5.53;5.03;;;15.40;92.00;;;;;;5007802;28;20055;-74
2022/04/24 01:19:25;;;;;;;5.78;5.28;;;15.30;91.90;;;;;;5003988;28;20027;-73
2022/04/24 01:21:51;;;;;;;12.32;5.05;;;15.30;92.10;;;;;;4998734;28;20018;-72
2022/04/24 01:24:22;;;;;;;5.05;4.65;;;15.40;92.00;;;;;;5003947;28;20042;-73
2022/04/24 01:26:48;;;;;;;5.50;4.80;;;15.40;92.10;;;;;;4998462;28;20107;-72
2022/04/24 01:29:16;;;;;;;4.90;4.50;;;15.40;91.90;;;;;;5005167;28;20109;-71
2022/04/24 01:31:44;;;;;;;7.85;4.68;;;15.30;92.30;;;;;;4994583;28;20022;-71
2022/04/24 01:34:10;;;;;;;6.15;4.15;;;15.40;92.40;;;;;;5004377;28;20024;-73
2022/04/24 01:36:36;;;;;;;4.78;4.38;;;15.50;92.30;;;;;;4999568;28;20030;-73
2022/04/24 01:39:03;;;;;;;5.32;4.85;;;15.50;92.40;;;;;;4998877;28;20022;-73
2022/04/24 01:41:28;;;;;;;5.28;4.88;;;15.50;91.90;;;;;;5001091;28;20527;-73
2022/04/24 01:43:54;;;;;;;5.75;5.15;;;15.40;92.10;;;;;;5001965;28;20030;-73
2022/04/24 01:46:20;;;;;;;6.13;5.55;;;15.30;92.10;;;;;;4999545;28;20366;-73
2022/04/24 01:48:45;;;;;;;5.93;5.10;;;15.30;92.00;;;;;;5001279;28;20386;-73
2022/04/24 01:51:13;;;;;;;5.38;4.88;;;15.00;92.30;;;;;;5009864;28;20022;-72
2022/04/24 01:53:38;;;;;;;5.70;5.20;;;15.10;92.60;;;;;;5010019;28;20025;-72
2022/04/24 01:56:06;;;;;;;5.97;5.20;;;15.10;92.60;;;;;;5006730;28;20026;-73
2022/04/24 01:58:32;;;;;;;6.00;5.40;;;15.10;93.00;;;;;;5007101;28;20033;-73
2022/04/24 02:00:58;;;;;;;5.82;5.10;;;15.10;92.30;;;;;;5009534;28;20075;-72
2022/04/24 02:03:24;;;;;;;6.53;5.38;;;15.10;92.60;;;;;;4999343;28;20506;-70
2022/04/24 02:05:50;;;;;;;6.38;5.60;;;15.00;92.60;;;;;;5006445;28;20030;-72
2022/04/24 02:08:16;;;;;;;7.82;6.18;;;15.00;92.40;;;;;;5008527;28;20030;-73
2022/04/24 02:10:42;;;;;;;7.32;5.85;;;14.90;92.80;;;;;;5009300;28;20037;-73
2022/04/24 02:13:08;;;;;;;5.82;5.32;;;14.90;92.90;;;;;;5009613;28;20370;-72
2022/04/24 02:15:34;;;;;;;6.90;6.30;;;15.00;92.80;;;;;;5007973;28;20029;-73
2022/04/24 02:18:00;;;;;;;6.53;5.93;;;14.90;93.00;;;;;;5002121;28;20109;-73
2022/04/24 02:20:28;;;;;;;5.97;5.38;;;15.00;92.90;;;;;;4998677;28;20049;-72
2022/04/24 02:22:55;;;;;;;6.07;5.43;;;14.90;92.80;;;;;;5007519;28;20373;-73
2022/04/24 02:25:22;;;;;;;6.93;6.32;;;14.90;92.90;;;;;;4990612;28;20026;-72
2022/04/24 02:27:47;;;;;;;6.50;5.90;;;14.90;92.90;;;;;;5009341;28;20053;-73
2022/04/24 02:30:13;;;;;;;5.72;5.22;;;14.90;92.90;;;;;;5009154;28;20458;-72
2022/04/24 02:32:39;;;;;;;5.75;5.00;;;14.90;92.90;;;;;;5007888;28;20525;-73
2022/04/24 02:35:05;;;;;;;5.57;5.07;;;14.90;93.10;;;;;;5004857;28;20030;-73
2022/04/24 02:37:32;;;;;;;6.90;5.38;;;14.80;92.90;;;;;;5002710;28;20057;-72
2022/04/24 02:39:58;;;;;;;6.18;5.63;;;14.70;93.20;;;;;;5002761;28;20022;-73
2022/04/24 02:42:24;;;;;;;7.07;5.63;;;14.70;93.40;;;;;;5001872;28;20026;-73
2022/04/24 02:44:49;;;;;;;6.78;6.18;;;14.70;93.40;;;;;;5003923;28;20386;-73
2022/04/24 02:47:15;;;;;;;6.80;6.30;;;14.60;93.30;;;;;;5003732;28;20021;-73
2022/04/24 02:49:41;;;;;;;7.50;5.75;;;14.60;93.50;;;;;;5002477;28;20415;-73
2022/04/24 02:52:06;;;;;;;7.20;6.10;;;14.60;93.60;;;;;;5003636;28;20432;-73
2022/04/24 02:54:32;;;;;;;8.32;6.93;;;14.50;93.70;;;;;;5009880;28;20033;-73
2022/04/24 02:56:58;;;;;;;7.53;5.95;;;14.50;93.80;;;;;;5012482;28;20030;-72
2022/04/24 02:59:25;;;;;;;7.57;6.82;;;14.40;94.00;;;;;;5012697;28;20422;-73
2022/04/24 03:01:52;;;;;;;7.13;6.53;;;14.40;93.80;;;;;;5012510;28;20470;-73
2022/04/24 03:04:18;;;;;;;7.00;6.38;;;14.30;94.00;;;;;;5012918;28;20037;-73
2022/04/24 03:06:43;;;;;;;7.50;6.72;;;14.40;93.80;;;;;;5012557;28;20026;-73
2022/04/24 03:09:09;;;;;;;7.00;6.40;;;14.30;93.90;;;;;;5012675;28;20464;-73
2022/04/24 03:11:34;;;;;;;8.05;7.35;;;14.30;93.70;;;;;;5011966;28;20026;-73
2022/04/24 03:14:00;;;;;;;6.65;6.10;;;14.20;94.00;;;;;;5011252;28;20026;-72
2022/04/24 03:16:25;;;;;;;7.97;7.22;;;14.10;94.10;;;;;;5011030;28;20064;-73
2022/04/24 03:18:51;;;;;;;8.48;6.70;;;14.20;93.90;;;;;;5011553;28;20052;-73
2022/04/24 03:21:17;;;;;;;7.07;6.38;;;14.10;93.90;;;;;;5011356;28;20026;-72
2022/04/24 03:23:42;;;;;;;8.73;6.50;;;14.00;93.80;;;;;;5011341;28;20021;-72
2022/04/24 03:26:08;;;;;;;7.75;6.63;;;14.00;94.10;;;;;;5011397;28;20022;-75
2022/04/24 03:28:34;;;;;;;7.45;6.75;;;14.00;94.00;;;;;;5010831;28;20108;-74
2022/04/24 03:30:59;;;;;;;7.53;6.82;;;13.90;94.20;;;;;;5011307;28;20375;-74
2022/04/24 03:33:25;;;;;;;9.13;6.97;;;14.00;94.20;;;;;;5011234;28;20060;-74
2022/04/24 03:35:50;;;;;;;7.40;6.70;;;14.00;94.20;;;;;;5010317;28;20028;-73
2022/04/24 03:38:16;;;;;;;9.30;8.35;;;14.00;94.00;;;;;;5010770;28;20101;-74
2022/04/24 03:40:41;;;;;;;8.25;7.35;;;13.90;94.30;;;;;;5011193;28;20045;-73
2022/04/24 03:43:07;;;;;;;9.02;8.13;;;13.90;94.30;;;;;;4999584;28;20035;-73
2022/04/24 03:45:33;;;;;;;8.48;7.72;;;13.90;94.50;;;;;;4999204;28;20087;-73
2022/04/24 03:47:58;;;;;;;8.50;7.72;;;13.90;94.30;;;;;;5009213;28;20026;-73
2022/04/24 03:50:24;;;;;;;8.57;7.70;;;13.70;94.40;;;;;;5010801;28;20394;-74
2022/04/24 03:52:50;;;;;;;8.48;7.57;;;13.60;94.90;;;;;;5010997;28;20033;-74
2022/04/24 03:55:15;;;;;;;9.95;8.88;;;13.50;94.50;;;;;;5010676;28;20033;-74
2022/04/24 03:57:41;;;;;;;9.73;8.73;;;13.40;94.80;;;;;;5010774;28;20030;-74
2022/04/24 04:00:07;;;;;;;10.52;8.35;;;13.40;95.10;;;;;;5011019;28;20032;-74
2022/04/24 04:02:44;;;;;;;9.45;8.52;;;13.40;95.30;;;;;;5010372;28;20026;-74
2022/04/24 04:05:10;;;;;;;9.88;8.18;;;13.20;95.30;;;;;;5010913;28;20033;-74
2022/04/24 04:07:35;;;;;;;9.85;8.13;;;13.20;95.30;;;;;;5009920;28;20022;-74
2022/04/24 04:10:01;;;;;;;11.23;8.45;;;13.20;95.40;;;;;;5010745;28;20046;-73
2022/04/24 04:12:27;;;;;;;9.90;9.00;;;13.10;95.50;;;;;;5005545;28;119045;-74
2022/04/24 04:14:53;;;;;;;9.57;8.68;;;13.10;95.70;;;;;;5011067;28;20034;-74
2022/04/24 04:17:19;;;;;;;10.68;9.57;;;13.10;95.40;;;;;;5011222;28;20097;-74
2022/04/24 04:19:45;;;;;;;9.07;8.18;;;12.80;95.70;;;;;;5011575;28;20436;-73
2022/04/24 04:22:10;;;;;;;10.13;9.13;;;12.90;96.00;;;;;;5011296;28;20024;-73
2022/04/24 04:24:36;;;;;;;10.85;9.75;;;12.90;95.70;;;;;;4993360;28;20355;-74
2022/04/24 04:27:03;;;;;;;10.68;9.68;;;13.00;95.70;;;;;;5011243;28;20026;-73
2022/04/24 04:29:29;;;;;;;9.88;8.88;;;12.90;95.80;;;;;;5011176;28;20041;-74
2022/04/24 04:31:55;;;;;;;12.15;10.38;;;12.80;95.90;;;;;;5011458;28;20021;-73
2022/04/24 04:34:20;;;;;;;11.75;10.60;;;12.80;96.10;;;;;;5011209;28;20485;-73
2022/04/24 04:36:46;;;;;;;10.15;9.02;;;12.80;96.20;;;;;;5011022;28;20160;-73
2022/04/24 04:39:12;;;;;;;10.25;9.25;;;12.60;96.40;;;;;;5011425;28;20057;-74
2022/04/24 04:41:37;;;;;;;10.35;9.10;;;12.60;96.40;;;;;;5010956;28;20449;-73
2022/04/24 04:44:03;;;;;;;10.02;9.02;;;12.60;96.60;;;;;;5008543;28;20036;-74
2022/04/24 04:46:29;;;;;;;11.60;9.88;;;12.60;96.50;;;;;;4991675;28;20467;-74
2022/04/24 04:48:54;;;;;;;11.77;10.60;;;12.60;96.70;;;;;;4991616;28;20117;-72
2022/04/24 04:51:20;;;;;;;11.55;10.35;;;12.50;96.80;;;;;;4992368;28;20023;-74
2022/04/24 04:53:46;;;;;;;13.43;12.02;;;12.40;96.70;;;;;;5010545;28;20041;-72
2022/04/24 04:56:11;;;;;;;12.50;11.32;;;12.40;97.00;;;;;;5011007;28;20026;-74
2022/04/24 04:58:37;;;;;;;11.65;10.43;;;12.40;97.00;;;;;;5010808;28;20362;-74
2022/04/24 05:01:03;;;;;;;11.20;10.02;;;12.30;96.80;;;;;;5010341;28;20378;-73
2022/04/24 05:03:30;;;;;;;15.55;11.55;;;12.20;97.20;;;;;;5010992;28;20022;-74
2022/04/24 05:05:56;;;;;;;13.38;11.45;;;12.30;97.30;;;;;;5010487;28;20066;-74
2022/04/24 05:08:22;;;;;;;13.90;12.00;;;12.40;97.30;;;;;;5010889;28;20034;-74
2022/04/24 05:10:47;;;;;;;12.88;11.55;;;12.30;97.20;;;;;;5009998;28;20067;-74
2022/04/24 05:13:13;;;;;;;13.50;10.73;;;12.40;97.10;;;;;;5010276;28;20105;-74
2022/04/24 05:15:39;;;;;;;11.63;10.43;;;12.40;97.00;;;;;;5009519;28;20434;-71
2022/04/24 05:18:04;;;;;;;12.05;10.63;;;12.40;97.20;;;;;;5010375;28;20014;-74
2022/04/24 05:20:30;;;;;;;12.55;10.95;;;12.40;97.50;;;;;;5010593;28;20025;-73
2022/04/24 05:23:06;;;;;;;12.13;10.82;;;12.40;97.30;;;;;;5010533;28;20054;-72
2022/04/24 05:25:33;;;;;;;13.95;12.38;;;12.40;97.50;;;;;;5010368;28;20062;-74
2022/04/24 05:28:00;;;;;;;12.52;11.25;;;12.50;97.70;;;;;;5009591;28;20052;-73
2022/04/24 05:30:28;;;;;;;12.50;11.27;;;12.30;97.40;;;;;;5010203;28;20021;-74
2022/04/24 05:32:53;;;;;;;12.25;11.05;;;12.30;97.70;;;;;;5010428;28;20035;-74
2022/04/24 05:35:19;;;;;;;13.80;12.40;;;12.30;97.70;;;;;;5007494;28;20578;-73
2022/04/24 05:37:45;;;;;;;14.48;12.40;;;12.20;97.60;;;;;;5009412;28;20906;-73
2022/04/24 05:40:11;;;;;;;16.85;12.13;;;12.30;97.70;;;;;;5010470;28;20036;-74
2022/04/24 05:42:45;;;;;;;13.02;11.65;;;12.20;98.00;;;;;;5009927;28;20104;-72
2022/04/24 05:45:14;;;;;;;13.30;11.52;;;12.30;97.70;;;;;;5046222;28;20079;-73
2022/04/24 05:47:41;;;;;;;15.15;11.32;;;12.30;98.10;;;;;;5009469;28;20034;-72
2022/04/24 05:50:07;;;;;;;13.23;10.68;;;12.30;97.90;;;;;;5010260;28;20037;-73
2022/04/24 05:52:33;;;;;;;11.43;10.32;;;12.20;98.10;;;;;;5010224;28;20027;-72
2022/04/24 05:54:59;;;;;;;12.02;10.40;;;12.20;98.30;;;;;;5010200;28;20377;-73
2022/04/24 05:57:24;;;;;;;12.68;11.38;;;12.20;98.30;;;;;;5009164;28;20033;-73
2022/04/24 05:59:50;;;;;;;11.45;10.32;;;12.20;98.20;;;;;;5009982;28;20022;-74
2022/04/24 06:02:15;;;;;;;11.48;10.27;;;12.30;98.40;;;;;;5009987;28;20390;-73
2022/04/24 06:04:41;;;;;;;13.57;10.52;;;12.30;98.60;;;;;;5009908;28;20026;-73
2022/04/24 06:07:06;;;;;;;12.32;11.00;;;12.40;98.60;;;;;;5011119;28;20030;-72
2022/04/24 06:09:32;;;;;;;11.57;10.48;;;12.30;98.20;;;;;;5013768;28;20386;-72
2022/04/24 06:12:01;;;;;;;11.18;9.90;;;12.30;98.00;;;;;;5009457;28;20042;-72
2022/04/24 06:14:27;;;;;;;13.00;10.10;;;12.30;98.30;;;;;;4993954;28;20093;-72
2022/04/24 06:16:53;;;;;;;13.18;9.18;;;12.30;98.30;;;;;;4993505;28;20030;-72
2022/04/24 06:19:18;;;;;;;13.18;9.82;;;12.10;98.30;;;;;;4993543;28;20026;-73
2022/04/24 06:21:44;;;;;;;11.82;10.63;;;12.20;98.40;;;;;;4993623;28;20034;-72
2022/04/24 06:24:09;;;;;;;12.00;9.60;;;12.20;99.00;;;;;;5012309;28;20036;-73
2022/04/24 06:26:35;;;;;;;12.85;9.88;;;12.30;98.50;;;;;;5013073;28;20033;-73
2022/04/24 06:29:02;;;;;;;13.30;10.52;;;12.40;98.30;;;;;;5012848;28;20034;-73
2022/04/24 06:31:28;;;;;;;11.38;9.80;;;12.30;98.20;;;;;;5012194;28;20030;-73
2022/04/24 06:33:54;;;;;;;14.38;10.20;;;12.40;98.50;;;;;;5013151;28;20484;-74
2022/04/24 06:36:19;;;;;;;14.82;10.63;;;12.40;98.30;;;;;;5012340;28;20026;-73
2022/04/24 06:38:45;;;;;;;13.73;10.40;;;12.60;98.30;;;;;;5011699;28;20022;-73
2022/04/24 06:41:10;;;;;;;10.90;9.88;;;12.40;98.00;;;;;;5010234;28;20038;-74
2022/04/24 06:43:36;;;;;;;11.68;10.43;;;12.50;98.30;;;;;;5000783;28;20058;-73
2022/04/24 06:46:02;;;;;;;11.50;9.10;;;12.50;98.70;;;;;;5007917;28;20109;-73
2022/04/24 06:48:27;;;;;;;11.35;9.18;;;12.60;98.40;;;;;;5011489;28;20160;-73
2022/04/24 06:50:53;;;;;;;10.63;9.55;;;12.70;98.40;;;;;;4999541;28;20112;-73
2022/04/24 06:53:20;;;;;;;10.65;9.55;;;12.60;98.50;;;;;;5012979;28;20479;-73
2022/04/24 06:55:48;;;;;;;10.75;9.52;;;12.60;98.00;;;;;;5012758;28;20026;-74
2022/04/24 06:58:16;;;;;;;11.57;9.80;;;12.70;98.50;;;;;;5002742;28;20036;-73
2022/04/24 07:00:44;;;;;;;10.77;9.15;;;12.90;98.00;;;;;;4992576;28;20029;-73
2022/04/24 07:03:16;;;;;;;11.38;9.25;;;12.90;97.70;;;;;;4992839;28;20083;-73
2022/04/24 07:05:44;;;;;;;12.13;9.70;;;13.00;97.60;;;;;;4993164;28;20474;-73
2022/04/24 07:08:10;;;;;;;13.35;10.43;;;12.90;97.70;;;;;;4995380;28;20026;-73
2022/04/24 07:10:37;;;;;;;11.68;10.48;;;13.00;97.70;;;;;;5002494;28;20387;-73
2022/04/24 07:13:03;;;;;;;12.05;10.02;;;13.00;97.70;;;;;;5001810;28;20030;-73
2022/04/24 07:15:31;;;;;;;11.05;9.90;;;13.10;97.70;;;;;;5001708;28;20026;-73
2022/04/24 07:17:57;;;;;;;12.45;9.20;;;13.30;97.90;;;;;;5004836;28;20025;-74
2022/04/24 07:20:23;;;;;;;11.15;9.07;;;13.30;97.60;;;;;;5008767;28;20026;-74
2022/04/24 07:22:51;;;;;;;12.85;8.90;;;13.50;97.20;;;;;;5005764;28;20050;-74
2022/04/24 07:25:22;;;;;;;11.20;8.60;;;13.50;97.20;;;;;;5005022;28;20072;-73
2022/04/24 07:27:49;;;;;;;11.63;8.45;;;13.50;97.30;;;;;;4997691;28;20026;-74
2022/04/24 07:30:15;;;;;;;10.48;9.15;;;13.60;97.50;;;;;;5002770;28;20133;-74
2022/04/24 07:32:46;;;;;;;15.35;10.13;;;13.70;97.00;;;;;;4999813;28;20023;-74
2022/04/24 07:35:26;;;;;;;11.45;9.50;;;13.80;96.90;;;;;;5000577;28;20036;-74
2022/04/24 07:37:52;;;;;;;9.52;8.63;;;13.90;97.40;;;;;;5002030;28;20104;-74
2022/04/24 07:40:19;;;;;;;10.68;8.90;;;13.90;96.50;;;;;;4996887;28;20044;-74
2022/04/24 07:42:48;;;;;;;13.50;10.02;;;14.00;96.60;;;;;;5014870;28;20072;-74
2022/04/24 07:45:36;;;;;;;12.00;8.55;;;14.00;96.20;;;;;;5002341;28;20045;-73
2022/04/24 07:48:03;;;;;;;12.77;9.38;;;14.20;96.20;;;;;;5004738;28;20391;-74
2022/04/24 07:50:33;;;;;;;9.48;8.60;;;14.30;96.00;;;;;;5010449;28;20054;-74
2022/04/24 07:53:00;;;;;;;13.10;9.18;;;14.50;96.10;;;;;;5008367;28;20028;-74
2022/04/24 07:55:26;;;;;;;12.43;8.75;;;14.60;95.60;;;;;;5001021;28;20038;-74
2022/04/24 07:57:53;;;;;;;11.95;9.80;;;14.90;96.30;;;;;;4999355;28;20022;-74
2022/04/24 08:00:21;;;;;;;8.88;8.05;;;15.00;95.30;;;;;;5000422;28;20035;-73
2022/04/24 08:03:00;;;;;;;13.15;9.23;;;15.10;95.40;;;;;;4998793;28;20034;-73
2022/04/24 08:05:41;;;;;;;9.98;8.27;;;15.20;94.90;;;;;;5005209;28;20060;-73
2022/04/24 08:08:18;;;;;;;11.00;9.20;;;15.40;95.60;;;;;;4997556;28;20030;-73
2022/04/24 08:10:49;;;;;;;10.05;8.00;;;15.50;94.60;;;;;;4993968;28;20036;-73
2022/04/24 08:13:15;;;;;;;14.65;8.75;;;15.70;94.70;;;;;;5004261;28;20053;-73
2022/04/24 08:15:42;;;;;;;10.23;8.82;;;15.60;94.20;;;;;;4995965;28;20061;-74
2022/04/24 08:18:07;;;;;;;11.00;9.52;;;15.70;94.20;;;;;;4998238;28;20367;-73
2022/04/24 08:20:34;;;;;;;10.80;9.10;;;15.80;93.80;;;;;;4999921;28;20121;-73
2022/04/24 08:23:01;;;;;;;10.25;8.68;;;15.80;93.50;;;;;;4995834;28;20034;-74
2022/04/24 08:25:28;;;;;;;12.18;8.48;;;16.00;94.80;;;;;;5005415;28;20034;-73
2022/04/24 08:27:55;;;;;;;10.75;9.70;;;16.20;94.00;;;;;;4986141;28;20026;-73
2022/04/24 08:30:23;;;;;;;10.68;9.60;;;16.50;93.00;;;;;;4988047;28;20556;-72
2022/04/24 08:32:50;;;;;;;15.32;9.77;;;16.60;93.30;;;;;;5003464;28;20022;-72
2022/04/24 08:35:18;;;;;;;10.38;9.38;;;16.80;92.90;;;;;;5001984;28;20029;-74
2022/04/24 08:37:44;;;;;;;11.30;8.63;;;16.90;93.20;;;;;;5003342;28;20037;-74
2022/04/24 08:40:12;;;;;;;11.65;9.55;;;17.10;92.30;;;;;;4989275;28;20485;-74
2022/04/24 08:42:40;;;;;;;9.25;8.32;;;17.00;91.60;;;;;;5008047;28;20091;-74
2022/04/24 08:45:08;;;;;;;13.00;10.13;;;17.20;93.00;;;;;;5000585;28;20033;-74
2022/04/24 08:47:34;;;;;;;11.65;9.85;;;17.20;92.20;;;;;;4994122;28;20111;-73
2022/04/24 08:50:01;;;;;;;10.63;9.48;;;17.40;91.00;;;;;;4996903;28;20064;-74
2022/04/24 08:52:29;;;;;;;12.73;9.40;;;17.60;91.30;;;;;;5002757;28;20094;-74
2022/04/24 08:54:56;;;;;;;10.88;9.38;;;17.60;91.50;;;;;;5001890;28;20468;-74
2022/04/24 08:57:26;;;;;;;11.82;10.02;;;17.70;90.50;;;;;;4995168;28;20048;-73
2022/04/24 08:59:56;;;;;;;12.15;9.68;;;17.70;91.40;;;;;;4988327;28;20111;-73
2022/04/24 09:02:22;;;;;;;10.35;9.27;;;17.60;90.30;;;;;;5007190;28;20030;-74
2022/04/24 09:04:48;;;;;;;10.55;9.55;;;17.60;90.10;;;;;;5006741;28;20030;-73
2022/04/24 09:07:17;;;;;;;11.02;9.60;;;17.90;90.40;;;;;;4994905;28;20034;-72
2022/04/24 09:09:45;;;;;;;10.80;9.77;;;18.00;91.10;;;;;;4997830;28;20371;-73
2022/04/24 09:12:22;;;;;;;10.48;9.48;;;18.00;90.30;;;;;;5004326;28;20029;-73
2022/04/24 09:14:49;;;;;;;11.43;9.40;;;18.10;90.20;;;;;;5004132;28;20049;-73
2022/04/24 09:17:18;;;;;;;10.13;9.23;;;18.30;90.10;;;;;;5001488;28;20067;-72
2022/04/24 09:19:44;;;;;;;11.23;10.07;;;18.40;90.60;;;;;;5006854;28;20113;-73
2022/04/24 09:22:11;;;;;;;10.20;8.80;;;18.40;89.00;;;;;;5006485;28;20017;-72
2022/04/24 09:24:45;;;;;;;14.07;9.98;;;18.60;89.20;;;;;;5005547;28;20109;-73
2022/04/24 09:27:22;;;;;;;14.18;8.75;;;18.50;88.40;;;;;;4999932;28;20021;-73
2022/04/24 09:29:54;;;;;;;14.02;8.77;;;18.60;87.80;;;;;;5003956;28;20112;-73
2022/04/24 09:32:20;;;;;;;10.52;9.45;;;18.70;87.80;;;;;;5004382;28;20098;-74
2022/04/24 09:34:46;;;;;;;11.15;9.77;;;18.70;87.40;;;;;;5003013;28;20079;-73
2022/04/24 09:37:12;;;;;;;15.77;9.32;;;18.90;87.10;;;;;;5000698;28;20460;-74
2022/04/24 09:39:38;;;;;;;19.65;10.30;;;19.10;87.40;;;;;;5002616;28;20378;-72
2022/04/24 09:42:11;;;;;;;9.55;8.68;;;19.20;85.90;;;;;;5001436;28;20379;-73
2022/04/24 09:44:51;;;;;;;10.57;9.45;;;19.30;89.30;;;;;;4986557;28;20440;-74
2022/04/24 09:47:18;;;;;;;12.35;9.80;;;19.40;86.90;;;;;;4999903;28;20531;-73
2022/04/24 09:49:47;;;;;;;10.75;9.65;;;19.70;86.20;;;;;;5003075;28;20137;-74
2022/04/24 09:52:18;;;;;;;11.95;9.88;;;19.70;84.90;;;;;;4997366;28;20478;-73
2022/04/24 09:54:46;;;;;;;12.50;9.77;;;19.80;84.30;;;;;;5000628;28;20038;-73
2022/04/24 09:57:13;;;;;;;14.70;9.50;;;19.90;86.60;;;;;;4987467;28;20090;-74
2022/04/24 09:59:41;;;;;;;13.43;9.85;;;20.00;83.80;;;;;;5001419;28;20033;-73
2022/04/24 10:02:08;;;;;;;15.02;8.82;;;20.00;84.70;;;;;;5003639;28;20032;-72
2022/04/24 10:04:35;;;;;;;9.50;8.48;;;20.20;84.40;;;;;;4999863;28;20024;-73
2022/04/24 10:07:06;;;;;;;10.82;8.73;;;20.10;83.00;;;;;;5002259;28;20079;-74
2022/04/24 10:09:37;;;;;;;10.13;9.10;;;20.00;83.80;;;;;;5003472;28;20090;-73
2022/04/24 10:12:20;;;;;;;13.60;9.32;;;20.00;82.00;;;;;;5000902;28;20401;-73
2022/04/24 10:15:03;;;;;;;9.25;8.23;;;19.70;84.40;;;;;;5005350;28;20033;-74
2022/04/24 10:18:30;;;;;;;11.95;8.43;;;20.00;81.80;;;;;;5006072;28;20022;-74
2022/04/24 10:21:13;;;;;;;12.02;8.95;;;20.00;81.90;;;;;;4922658;28;20063;-73
2022/04/24 10:23:39;;;;;;;9.40;8.50;;;19.80;80.40;;;;;;4927975;29;20032;-73
2022/04/24 10:26:21;;;;;;;11.43;8.27;;;19.90;80.80;;;;;;4971023;28;20045;-73
2022/04/24 10:28:48;;;;;;;11.63;8.77;;;20.40;81.80;;;;;;4998767;28;20128;-73
2022/04/24 10:31:15;;;;;;;14.63;9.55;;;20.50;81.60;;;;;;4996665;28;20034;-73
2022/04/24 10:33:52;;;;;;;12.60;9.85;;;20.50;81.10;;;;;;5000294;28;20022;-74
2022/04/24 10:36:18;;;;;;;9.75;8.10;;;20.50;80.30;;;;;;5002310;28;20105;-73
2022/04/24 10:38:54;;;;;;;9.82;8.20;;;20.70;79.60;;;;;;5004021;28;20091;-74
2022/04/24 10:41:23;;;;;;;11.23;9.13;;;20.80;80.80;;;;;;5010745;28;20039;-73
2022/04/24 10:43:52;;;;;;;11.98;9.43;;;20.80;79.50;;;;;;5000538;28;20018;-75
2022/04/24 10:46:26;;;;;;;11.55;9.40;;;20.70;79.50;;;;;;5000437;28;20067;-74
2022/04/24 10:48:52;;;;;;;11.38;9.52;;;20.80;80.40;;;;;;4999717;28;20051;-74
2022/04/24 10:51:28;;;;;;;12.25;9.55;;;20.90;81.90;;;;;;4996277;28;20026;-73
2022/04/24 10:53:58;;;;;;;11.77;9.52;;;21.10;81.30;;;;;;4998802;28;20083;-74
2022/04/24 10:56:25;;;;;;;11.25;8.90;;;21.10;80.20;;;;;;5000172;28;20479;-73
2022/04/24 10:58:51;;;;;;;11.10;9.90;;;21.30;79.20;;;;;;5002792;28;20030;-74
2022/04/24 11:01:17;;;;;;;11.55;8.95;;;21.30;80.80;;;;;;5004620;28;20433;-74
2022/04/24 11:03:45;;;;;;;10.98;9.32;;;21.40;81.20;;;;;;5000701;28;20466;-73
2022/04/24 11:06:23;;;;;;;11.20;9.45;;;21.20;77.90;;;;;;5003047;28;20111;-74
2022/04/24 11:08:50;;;;;;;11.40;9.75;;;21.30;79.30;;;;;;5002487;28;20037;-73
2022/04/24 11:11:18;;;;;;;12.45;9.55;;;21.30;77.70;;;;;;4998195;28;20034;-75
2022/04/24 11:13:44;;;;;;;11.55;8.55;;;21.20;79.30;;;;;;5002926;28;20108;-74
2022/04/24 11:16:12;;;;;;;10.00;9.10;;;21.20;78.50;;;;;;5000856;28;20026;-75
2022/04/24 11:18:38;;;;;;;10.63;9.48;;;21.40;76.80;;;;;;4998327;28;20054;-73
2022/04/24 11:21:06;;;;;;;11.80;9.88;;;21.50;77.70;;;;;;5003318;28;20478;-74
2022/04/24 11:23:38;;;;;;;12.63;10.98;;;21.70;79.20;;;;;;5004013;28;20063;-75
2022/04/24 11:26:06;;;;;;;11.27;9.32;;;21.80;76.70;;;;;;4997717;28;20037;-75
2022/04/24 11:28:34;;;;;;;14.05;9.43;;;21.80;77.60;;;;;;5002771;28;20025;-75
2022/04/24 11:31:20;;;;;;;12.73;9.90;;;21.80;77.10;;;;;;4997929;28;20034;-74
2022/04/24 11:33:57;;;;;;;10.50;9.50;;;21.90;75.10;;;;;;4992010;28;20067;-73
2022/04/24 11:36:34;;;;;;;11.93;10.23;;;21.50;75.30;;;;;;4995160;28;20064;-73
2022/04/24 11:39:07;;;;;;;11.50;10.38;;;21.50;77.90;;;;;;5003500;28;20038;-73
2022/04/24 11:41:34;;;;;;;9.35;8.45;;;21.60;77.30;;;;;;5005980;28;20066;-73
2022/04/24 11:52:25;;;;;;;10.75;9.68;;;21.80;76.00;;;;;;5000288;28;20096;-71
2022/04/24 11:54:51;;;;;;;10.20;9.20;;;22.00;75.80;;;;;;5002946;28;20038;-72
2022/04/24 11:57:18;;;;;;;10.43;8.25;;;22.20;75.90;;;;;;5000484;28;20541;-71
2022/04/24 11:59:52;;;;;;;10.40;9.32;;;21.70;76.20;;;;;;4997832;28;20502;-72
2022/04/24 12:02:18;;;;;;;9.95;9.13;;;22.10;75.00;;;;;;5003017;28;20029;-72
2022/04/24 12:04:49;;;;;;;10.52;9.43;;;21.70;75.80;;;;;;4999543;28;20030;-72
2022/04/24 12:07:14;;;;;;;12.10;9.27;;;21.40;78.30;;;;;;4995654;28;20029;-72
2022/04/24 12:09:40;;;;;;;9.98;8.98;;;21.40;76.40;;;;;;5001933;28;20034;-72
2022/04/24 12:12:14;;;;;;;11.00;9.55;;;21.60;74.90;;;;;;4998214;28;20423;-72
2022/04/24 12:14:42;;;;;;;9.27;8.38;;;21.50;77.00;;;;;;4992935;28;20161;-72
2022/04/24 12:17:10;;;;;;;8.85;7.95;;;21.50;73.60;;;;;;5001644;28;20030;-72
2022/04/24 12:19:40;;;;;;;8.88;7.97;;;21.50;75.90;;;;;;5002337;28;20026;-72
2022/04/24 12:22:12;;;;;;;9.25;8.07;;;21.80;74.10;;;;;;4999154;28;20424;-73
2022/04/24 12:24:46;;;;;;;24.95;10.52;;;22.00;75.20;;;;;;5003893;28;20077;-72
2022/04/24 12:27:16;;;;;;;8.70;7.80;;;22.00;76.60;;;;;;5001472;28;20022;-72
2022/04/24 12:29:48;;;;;;;10.20;9.20;;;21.70;75.10;;;;;;5008173;28;20125;-72
2022/04/24 12:32:14;;;;;;;8.60;7.70;;;21.60;74.40;;;;;;4998652;28;20513;-71
2022/04/24 12:34:42;;;;;;;8.15;7.40;;;21.60;75.00;;;;;;5003347;28;20026;-71
2022/04/24 12:37:08;;;;;;;9.77;7.15;;;21.90;75.10;;;;;;5005799;28;20049;-72
2022/04/24 12:39:34;;;;;;;7.75;6.47;;;21.90;73.30;;;;;;5005219;28;20030;-72
2022/04/24 12:42:17;;;;;;;7.75;7.05;;;21.90;73.90;;;;;;5004333;28;20034;-71
2022/04/24 12:44:43;;;;;;;;;;;21.80;73.50;;;;;;5003952;28;20026;-70
2022/04/24 12:47:09;;;;;;;8.98;8.07;;;22.10;72.90;;;;;;5007128;28;19916;-72
2022/04/24 12:49:35;;;;;;;10.05;7.07;;;22.00;72.20;;;;;;5002403;28;20037;-73
2022/04/24 12:52:01;;;;;;;7.88;7.07;;;21.60;72.00;;;;;;5003855;28;20379;-73